Terminal Aerodrome Forecast
Issued by NWS Jackson, KY

Home | Current Version | Previous Version | Graphics & Text | Print | Product List | Glossary On
Versions: 1 2 3 4 5 6 7 8 9 10 11 12 13 14 15
930
FTUS43 KJKL 041140
TAFJKL
TAF
KJKL 041140Z 0412/0512 VRB03KT P6SM OVC080
     FM041500 VRB03KT P6SM VCSH OVC050
     FM042100 VRB03KT P6SM VCSH OVC025
     FM050300 00000KT 5SM BR VCSH OVC010
     FM050700 00000KT 3SM -DZ BR OVC005=

USA.gov is the U.S. government's official web portal to all federal, state and local government web resources and services.